createdAt,value
2018-06-27T00:01:32.261Z,13.63
2018-06-27T00:04:01.097Z,13.50
2018-06-27T00:06:29.925Z,14.60
2018-06-27T00:08:58.771Z,15.67
2018-06-27T00:11:27.601Z,14.97
2018-06-27T00:13:56.452Z,14.53
2018-06-27T00:16:25.285Z,15.50
2018-06-27T00:18:54.452Z,14.63
2018-06-27T00:21:23.281Z,14.90
2018-06-27T00:23:52.804Z,15.37
2018-06-27T00:26:21.647Z,14.80
2018-06-27T00:28:50.480Z,15.17
2018-06-27T00:31:19.316Z,15.10
2018-06-27T00:33:48.224Z,15.10
2018-06-27T00:36:17.033Z,15.03
2018-06-27T00:38:45.876Z,16.10
2018-06-27T00:41:14.721Z,14.70
2018-06-27T00:43:43.552Z,15.10
2018-06-27T00:46:12.476Z,15.90
2018-06-27T00:48:41.293Z,16.13
2018-06-27T00:51:10.119Z,17.23
2018-06-27T00:53:44.471Z,16.73
2018-06-27T00:56:13.343Z,17.33
2018-06-27T00:58:42.173Z,17.73
2018-06-27T01:01:11.024Z,18.60
2018-06-27T01:03:39.852Z,19.47
2018-06-27T01:06:08.712Z,20.20
2018-06-27T01:08:37.548Z,19.33
2018-06-27T01:11:06.381Z,19.30
2018-06-27T01:13:35.213Z,19.17
2018-06-27T01:16:04.114Z,19.13
2018-06-27T01:18:32.948Z,18.37
2018-06-27T01:21:02.684Z,19.20
2018-06-27T01:23:31.519Z,17.97
2018-06-27T01:26:00.392Z,18.37
2018-06-27T01:28:30.101Z,19.23
2018-06-27T01:30:59.000Z,20.33
2018-06-27T01:33:27.844Z,21.17
2018-06-27T01:35:56.536Z,21.43
2018-06-27T01:38:25.256Z,21.53
2018-06-27T01:40:54.113Z,20.47
2018-06-27T01:43:22.924Z,20.47
2018-06-27T01:45:51.800Z,20.73
2018-06-27T01:48:20.662Z,20.20
2018-06-27T01:50:49.487Z,21.23
2018-06-27T01:53:19.231Z,22.17
2018-06-27T01:55:48.065Z,21.87
2018-06-27T01:58:16.883Z,21.37
2018-06-27T02:00:45.723Z,21.13
2018-06-27T02:03:14.552Z,20.33
2018-06-27T02:05:43.412Z,22.07
2018-06-27T02:08:12.259Z,21.90
2018-06-27T02:10:41.084Z,21.40
2018-06-27T02:13:10.033Z,22.83
2018-06-27T02:15:38.875Z,22.70
2018-06-27T02:18:07.695Z,23.37
2018-06-27T02:20:36.533Z,22.63
2018-06-27T02:23:09.783Z,22.60
2018-06-27T02:25:39.115Z,23.37
2018-06-27T02:28:08.732Z,24.17
2018-06-27T02:30:37.559Z,24.27
2018-06-27T02:33:06.395Z,23.60
2018-06-27T02:35:35.216Z,23.57
2018-06-27T02:38:04.048Z,24.77
2018-06-27T02:40:32.873Z,23.97
2018-06-27T02:43:01.729Z,24.77
2018-06-27T02:45:30.644Z,23.67
2018-06-27T02:47:59.526Z,24.20
2018-06-27T02:50:28.359Z,24.80
2018-06-27T02:52:57.255Z,24.47
2018-06-27T02:55:26.080Z,25.87
2018-06-27T02:57:54.899Z,24.07
2018-06-27T03:00:23.733Z,25.13
2018-06-27T03:02:52.572Z,26.10
2018-06-27T03:05:21.383Z,25.33
2018-06-27T03:07:50.225Z,26.80
2018-06-27T03:10:19.363Z,25.73
2018-06-27T03:12:48.197Z,25.33
2018-06-27T03:15:17.025Z,24.33
2018-06-27T03:17:46.707Z,25.87
2018-06-27T03:20:15.705Z,24.90
2018-06-27T03:22:44.905Z,25.97
2018-06-27T03:25:13.709Z,24.43
2018-06-27T03:27:42.883Z,25.90
2018-06-27T03:30:11.727Z,25.03
2018-06-27T03:32:40.565Z,25.13
2018-06-27T03:35:09.372Z,24.53
2018-06-27T03:37:38.226Z,24.03
2018-06-27T03:40:07.037Z,24.77
2018-06-27T03:42:35.859Z,23.20
2018-06-27T03:45:04.728Z,22.80
2018-06-27T03:47:33.547Z,22.10
2018-06-27T03:50:02.384Z,23.00
2018-06-27T03:52:31.211Z,20.90
2018-06-27T03:55:00.026Z,21.80
2018-06-27T03:57:28.836Z,20.90
2018-06-27T03:59:57.655Z,19.80
2018-06-27T04:02:26.483Z,20.13
2018-06-27T04:04:55.304Z,19.63
2018-06-27T04:07:24.194Z,20.33
2018-06-27T04:09:53.100Z,18.57
2018-06-27T04:12:21.960Z,20.50
2018-06-27T04:14:50.781Z,19.50
2018-06-27T04:17:19.603Z,20.23
2018-06-27T04:19:48.436Z,20.47
2018-06-27T04:22:22.860Z,19.13
2018-06-27T04:24:51.687Z,18.80
2018-06-27T04:27:20.513Z,20.37
2018-06-27T04:29:49.319Z,21.10
2018-06-27T04:32:18.160Z,21.03
2018-06-27T04:34:46.988Z,20.03
2018-06-27T04:37:16.715Z,20.73
2018-06-27T04:39:45.616Z,20.77
2018-06-27T04:42:14.500Z,20.07
2018-06-27T04:44:43.332Z,19.50
2018-06-27T04:47:12.156Z,19.10
2018-06-27T04:49:41.051Z,18.47
2018-06-27T04:52:09.883Z,19.03
2018-06-27T04:54:38.751Z,16.80
2018-06-27T04:57:07.448Z,16.63
2018-06-27T04:59:36.272Z,14.93
2018-06-27T05:02:05.112Z,16.90
2018-06-27T05:04:34.760Z,17.33
2018-06-27T05:07:03.604Z,15.57
2018-06-27T05:09:33.316Z,15.73
2018-06-27T05:12:02.152Z,14.90
2018-06-27T05:14:30.971Z,13.53
2018-06-27T05:16:59.792Z,13.67
2018-06-27T05:19:28.627Z,13.43
2018-06-27T05:21:57.475Z,12.73
2018-06-27T05:24:26.288Z,12.27
2018-06-27T05:26:55.103Z,12.77
2018-06-27T05:29:23.999Z,13.20
2018-06-27T05:31:52.822Z,12.73
2018-06-27T05:34:21.695Z,12.07
2018-06-27T05:36:50.571Z,10.37
2018-06-27T05:39:19.486Z,10.43
2018-06-27T05:41:48.296Z,11.50
2018-06-27T05:44:17.126Z,10.83
2018-06-27T05:46:45.916Z,12.10
2018-06-27T05:49:14.734Z,11.33
2018-06-27T05:51:43.676Z,11.00
2018-06-27T05:54:12.411Z,11.10
2018-06-27T05:56:41.234Z,10.37
2018-06-27T05:59:10.060Z,9.97
2018-06-27T06:01:38.963Z,10.73
2018-06-27T06:04:07.805Z,8.93
2018-06-27T06:06:36.655Z,9.00
2018-06-27T06:09:08.436Z,10.20
2018-06-27T06:11:37.379Z,9.10
2018-06-27T06:14:06.285Z,8.03
2018-06-27T06:16:35.364Z,8.17
2018-06-27T06:19:04.411Z,8.80
2018-06-27T06:21:33.220Z,8.27
2018-06-27T06:24:02.057Z,7.90
2018-06-27T06:26:30.940Z,8.70
2018-06-27T06:28:59.752Z,8.60
2018-06-27T06:31:28.559Z,6.73
2018-06-27T06:33:57.391Z,7.93
2018-06-27T06:36:26.218Z,6.27
2018-06-27T06:38:55.655Z,4.33
2018-06-27T06:41:24.480Z,3.93
2018-06-27T06:43:53.304Z,3.93
2018-06-27T06:46:22.128Z,4.57
2018-06-27T06:48:50.940Z,5.10
2018-06-27T06:51:19.869Z,4.73
2018-06-27T06:53:48.659Z,5.40
2018-06-27T06:56:17.479Z,5.63
2018-06-27T06:58:46.354Z,5.77
2018-06-27T07:01:15.184Z,5.83
2018-06-27T07:03:44.023Z,4.43
2018-06-27T07:06:12.866Z,3.20
2018-06-27T07:08:42.688Z,2.90
2018-06-27T07:11:11.539Z,2.90
2018-06-27T07:13:40.316Z,2.63
2018-06-27T07:16:08.950Z,2.40
2018-06-27T07:18:37.719Z,2.10
2018-06-27T07:21:06.653Z,2.50
2018-06-27T07:23:35.448Z,3.90
2018-06-27T07:26:04.071Z,3.93
2018-06-27T07:28:32.904Z,3.00
2018-06-27T07:31:01.649Z,2.17
2018-06-27T07:33:30.468Z,2.40
2018-06-27T07:35:59.320Z,2.60
2018-06-27T07:38:28.144Z,2.43
2018-06-27T07:40:56.963Z,3.23
2018-06-27T07:43:25.772Z,2.60
2018-06-27T07:45:54.584Z,2.70
2018-06-27T07:48:24.296Z,2.87
2018-06-27T07:50:53.089Z,2.90
2018-06-27T07:53:21.907Z,3.10
2018-06-27T07:55:50.724Z,3.13
2018-06-27T07:58:20.189Z,2.90
2018-06-27T08:00:49.009Z,3.20
2018-06-27T08:03:17.836Z,2.87
2018-06-27T08:05:46.734Z,2.83
2018-06-27T08:08:15.500Z,2.83
2018-06-27T08:10:44.303Z,2.80
2018-06-27T08:13:13.234Z,3.90
2018-06-27T08:15:42.043Z,4.00
2018-06-27T08:18:10.893Z,3.33
2018-06-27T08:20:39.731Z,3.97
2018-06-27T08:23:08.540Z,3.93
2018-06-27T08:25:41.607Z,4.53
2018-06-27T08:28:10.428Z,4.23
2018-06-27T08:30:39.248Z,4.60
2018-06-27T08:33:08.080Z,4.23
2018-06-27T08:35:36.909Z,4.20
2018-06-27T08:38:05.760Z,13.40
2018-06-27T08:40:34.596Z,4.67
2018-06-27T08:43:03.432Z,3.83
2018-06-27T08:45:32.244Z,3.60
2018-06-27T08:48:01.168Z,4.00
2018-06-27T08:50:30.009Z,3.87
2018-06-27T08:52:59.400Z,3.70
2018-06-27T08:55:28.249Z,4.67
2018-06-27T08:57:57.070Z,4.20
2018-06-27T09:00:25.699Z,4.10
2018-06-27T09:02:54.404Z,3.90
2018-06-27T09:05:23.222Z,5.00
2018-06-27T09:07:52.039Z,4.57
2018-06-27T09:10:20.860Z,4.20
2018-06-27T09:12:49.721Z,4.37
2018-06-27T09:15:18.515Z,3.90
2018-06-27T09:17:47.335Z,3.70
2018-06-27T09:20:16.508Z,3.37
2018-06-27T09:22:45.343Z,3.20
2018-06-27T09:25:14.162Z,3.53
2018-06-27T09:27:42.989Z,3.27
2018-06-27T09:30:11.823Z,4.13
2018-06-27T09:32:40.630Z,3.63
2018-06-27T09:35:09.443Z,3.47
2018-06-27T09:37:38.288Z,3.50
2018-06-27T09:40:07.120Z,3.80
2018-06-27T09:42:36.944Z,3.60
2018-06-27T09:45:05.748Z,3.00
2018-06-27T09:47:35.023Z,3.60
2018-06-27T09:50:04.557Z,3.57
2018-06-27T09:52:33.674Z,3.70
2018-06-27T09:55:02.496Z,3.53
2018-06-27T09:57:31.344Z,3.17
2018-06-27T10:00:00.190Z,3.37
2018-06-27T10:02:29.036Z,3.10
2018-06-27T10:04:57.840Z,2.90
2018-06-27T10:07:26.686Z,2.57
2018-06-27T10:09:55.508Z,2.43
2018-06-27T10:12:24.393Z,2.50
2018-06-27T10:14:53.227Z,2.20
2018-06-27T10:17:22.175Z,2.40
2018-06-27T10:19:50.968Z,2.10
2018-06-27T10:22:19.827Z,2.10
2018-06-27T10:24:48.673Z,2.20
2018-06-27T10:27:17.468Z,2.00
2018-06-27T10:29:46.348Z,1.80
2018-06-27T10:32:15.165Z,2.07
2018-06-27T10:34:44.508Z,1.60
2018-06-27T10:37:13.296Z,1.90
2018-06-27T10:39:42.833Z,1.90
2018-06-27T10:42:11.674Z,1.97
2018-06-27T10:44:40.481Z,2.00
2018-06-27T10:47:09.298Z,1.67
2018-06-27T10:49:38.588Z,1.83
2018-06-27T10:52:07.387Z,1.93
2018-06-27T10:54:41.613Z,1.30
2018-06-27T10:57:10.423Z,1.50
2018-06-27T10:59:39.275Z,2.07
2018-06-27T11:02:08.096Z,2.27
2018-06-27T11:04:36.915Z,1.40
2018-06-27T11:07:05.731Z,1.80
2018-06-27T11:09:35.154Z,1.50
2018-06-27T11:12:03.996Z,1.60
2018-06-27T11:14:32.812Z,1.90
2018-06-27T11:17:01.648Z,2.03
2018-06-27T11:19:30.460Z,1.80
2018-06-27T11:21:59.412Z,2.13
2018-06-27T11:24:29.047Z,2.53
2018-06-27T11:26:57.908Z,1.90
2018-06-27T11:29:26.692Z,1.70
2018-06-27T11:31:55.505Z,1.80
2018-06-27T11:34:24.344Z,2.10
2018-06-27T11:36:53.152Z,1.80
2018-06-27T11:39:21.982Z,1.60
2018-06-27T11:41:50.961Z,1.90
2018-06-27T11:44:19.741Z,1.63
2018-06-27T11:46:48.591Z,2.23
2018-06-27T11:49:17.396Z,2.03
2018-06-27T11:51:47.104Z,1.50
2018-06-27T11:54:15.984Z,1.77
2018-06-27T11:56:44.816Z,1.90
2018-06-27T11:59:13.698Z,1.80
2018-06-27T12:01:42.568Z,1.70
2018-06-27T12:04:11.436Z,1.97
2018-06-27T12:06:40.244Z,1.93
2018-06-27T12:09:10.038Z,1.70
2018-06-27T12:11:38.880Z,2.07
2018-06-27T12:14:07.735Z,2.17
2018-06-27T12:16:36.548Z,1.90
2018-06-27T12:19:05.899Z,1.80
2018-06-27T12:21:34.731Z,2.00
2018-06-27T12:24:03.564Z,2.10
2018-06-27T12:26:32.372Z,2.00
2018-06-27T12:29:01.177Z,2.30
2018-06-27T12:31:30.363Z,1.93
2018-06-27T12:33:59.694Z,2.23
2018-06-27T12:36:28.492Z,2.03
2018-06-27T12:38:57.335Z,2.00
2018-06-27T12:41:26.228Z,1.90
2018-06-27T12:43:55.029Z,1.93
2018-06-27T12:46:23.844Z,1.80
2018-06-27T12:48:52.729Z,1.60
2018-06-27T12:51:21.508Z,1.50
2018-06-27T12:53:50.311Z,1.43
2018-06-27T12:56:19.126Z,1.30
2018-06-27T12:58:47.931Z,1.73
2018-06-27T13:01:16.760Z,1.60
2018-06-27T13:03:45.582Z,1.97
2018-06-27T13:06:15.184Z,1.90
2018-06-27T13:08:43.868Z,1.40
2018-06-27T13:11:12.693Z,1.40
2018-06-27T13:13:41.496Z,1.50
2018-06-27T13:16:10.312Z,3.00
2018-06-27T13:18:39.136Z,1.30
2018-06-27T13:21:07.940Z,1.30
2018-06-27T13:23:36.764Z,1.57
2018-06-27T13:26:05.744Z,1.40
2018-06-27T13:28:34.555Z,1.80
2018-06-27T13:31:03.387Z,1.50
2018-06-27T13:33:32.207Z,1.27
2018-06-27T13:36:01.024Z,1.23
2018-06-27T13:38:29.830Z,1.80
2018-06-27T13:40:58.652Z,1.40
2018-06-27T13:43:27.480Z,1.40
2018-06-27T13:45:56.335Z,1.33
2018-06-27T13:48:25.160Z,1.20
2018-06-27T13:50:53.960Z,1.30
2018-06-27T13:53:22.772Z,1.10
2018-06-27T13:55:51.595Z,1.20
2018-06-27T13:58:20.575Z,1.03
2018-06-27T14:00:49.351Z,1.07
2018-06-27T14:03:18.167Z,1.30
2018-06-27T14:05:46.964Z,1.50
2018-06-27T14:08:15.852Z,1.30
2018-06-27T14:10:44.694Z,1.13
2018-06-27T14:13:13.560Z,1.30
2018-06-27T14:15:42.368Z,1.30
2018-06-27T14:18:11.196Z,1.27
2018-06-27T14:20:40.508Z,1.50
2018-06-27T14:23:09.346Z,1.00
2018-06-27T14:25:38.164Z,1.10
2018-06-27T14:28:06.999Z,0.90
2018-06-27T14:30:35.830Z,1.30
2018-06-27T14:33:05.045Z,1.50
2018-06-27T14:35:33.877Z,1.10
2018-06-27T14:38:03.337Z,0.90
2018-06-27T14:40:32.144Z,1.30
2018-06-27T14:43:00.960Z,1.07
2018-06-27T14:45:29.807Z,1.30
2018-06-27T14:47:59.354Z,1.20
2018-06-27T14:50:28.147Z,1.40
2018-06-27T14:52:56.960Z,1.43
2018-06-27T14:55:25.803Z,1.13
2018-06-27T14:57:54.960Z,1.17
2018-06-27T15:00:23.784Z,1.17
2018-06-27T15:02:52.612Z,1.10
2018-06-27T15:05:21.417Z,1.40
2018-06-27T15:07:50.247Z,1.10
2018-06-27T15:10:19.152Z,1.33
2018-06-27T15:12:47.992Z,1.30
2018-06-27T15:15:16.787Z,1.23
2018-06-27T15:17:45.688Z,1.17
2018-06-27T15:20:14.495Z,0.90
2018-06-27T15:22:43.299Z,1.10
2018-06-27T15:25:12.117Z,1.17
2018-06-27T15:27:41.571Z,0.90
2018-06-27T15:30:10.392Z,1.10
2018-06-27T15:32:39.196Z,1.50
2018-06-27T15:35:08.072Z,1.30
2018-06-27T15:37:36.825Z,1.33
2018-06-27T15:40:05.627Z,1.10
2018-06-27T15:42:34.583Z,1.10
2018-06-27T15:45:03.423Z,1.20
2018-06-27T15:47:32.254Z,1.47
2018-06-27T15:50:01.139Z,1.27
2018-06-27T15:52:29.950Z,1.23
2018-06-27T15:54:58.824Z,1.50
2018-06-27T15:57:27.651Z,1.23
2018-06-27T15:59:56.700Z,1.10
2018-06-27T16:02:25.520Z,1.07
2018-06-27T16:04:54.326Z,0.97
2018-06-27T16:07:23.131Z,1.03
2018-06-27T16:09:51.977Z,0.93
2018-06-27T16:12:20.671Z,0.90
2018-06-27T16:14:49.501Z,1.30
2018-06-27T16:17:18.532Z,1.30
2018-06-27T16:19:47.128Z,1.70
2018-06-27T16:22:16.211Z,1.40
2018-06-27T16:24:45.191Z,1.50
2018-06-27T16:27:14.047Z,1.50
2018-06-27T16:29:42.864Z,1.40
2018-06-27T16:32:11.658Z,1.50
2018-06-27T16:34:41.328Z,1.50
2018-06-27T16:37:09.986Z,1.50
2018-06-27T16:39:38.652Z,1.20
2018-06-27T16:42:07.523Z,1.43
2018-06-27T16:44:36.356Z,1.33
2018-06-27T16:47:05.174Z,1.40
2018-06-27T16:49:33.979Z,1.43
2018-06-27T16:52:02.777Z,1.57
2018-06-27T16:54:31.680Z,1.50
2018-06-27T16:57:00.466Z,1.50
2018-06-27T16:59:30.036Z,1.53
2018-06-27T17:01:58.967Z,1.47
2018-06-27T17:04:27.776Z,1.30
2018-06-27T17:06:56.662Z,1.20
2018-06-27T17:09:25.516Z,1.47
2018-06-27T17:11:54.360Z,1.43
2018-06-27T17:14:23.196Z,1.30
2018-06-27T17:16:52.016Z,1.40
2018-06-27T17:19:20.824Z,1.30
2018-06-27T17:21:49.662Z,1.43
2018-06-27T17:24:18.485Z,1.40
2018-06-27T17:26:47.275Z,1.30
2018-06-27T17:29:16.088Z,1.37
2018-06-27T17:31:44.980Z,1.50
2018-06-27T17:34:13.712Z,1.27
2018-06-27T17:36:42.512Z,1.43
2018-06-27T17:39:11.544Z,1.30
2018-06-27T17:41:40.368Z,1.67
2018-06-27T17:44:09.393Z,1.57
2018-06-27T17:46:38.199Z,1.30
2018-06-27T17:49:07.150Z,1.60
2018-06-27T17:51:35.965Z,1.30
2018-06-27T17:54:04.848Z,1.40
2018-06-27T17:56:33.664Z,1.60
2018-06-27T17:59:02.480Z,1.70
2018-06-27T18:01:31.321Z,1.40
2018-06-27T18:04:00.093Z,1.57
2018-06-27T18:06:28.892Z,1.70
2018-06-27T18:08:57.766Z,1.60
2018-06-27T18:11:26.499Z,1.70
2018-06-27T18:13:55.124Z,1.60
2018-06-27T18:16:23.817Z,1.80
2018-06-27T18:18:52.645Z,1.80
2018-06-27T18:21:21.255Z,1.73
2018-06-27T18:23:49.991Z,1.60
2018-06-27T18:26:19.199Z,1.50
2018-06-27T18:28:48.008Z,1.57
2018-06-27T18:31:16.809Z,1.40
2018-06-27T18:33:46.073Z,1.60
2018-06-27T18:36:14.872Z,1.53
2018-06-27T18:38:43.684Z,1.97
2018-06-27T18:41:12.500Z,1.87
2018-06-27T18:43:41.321Z,1.80
2018-06-27T18:46:10.128Z,1.60
2018-06-27T18:48:38.856Z,1.90
2018-06-27T18:51:07.532Z,1.80
2018-06-27T18:53:36.452Z,1.70
2018-06-27T18:56:05.293Z,1.80
2018-06-27T18:58:34.112Z,1.80
2018-06-27T19:01:02.917Z,1.70
2018-06-27T19:03:31.750Z,1.87
2018-06-27T19:06:00.580Z,1.87
2018-06-27T19:08:29.421Z,2.10
2018-06-27T19:10:58.236Z,2.10
2018-06-27T19:13:27.168Z,1.90
2018-06-27T19:15:56.031Z,2.00
2018-06-27T19:18:24.809Z,2.27
2018-06-27T19:20:53.637Z,1.90
2018-06-27T19:23:22.473Z,2.17
2018-06-27T19:25:51.325Z,2.30
2018-06-27T19:28:20.135Z,2.20
2018-06-27T19:30:49.018Z,2.67
2018-06-27T19:33:17.831Z,3.10
2018-06-27T19:35:46.668Z,3.80
2018-06-27T19:38:15.551Z,3.50
2018-06-27T19:40:44.326Z,3.50
2018-06-27T19:43:13.400Z,3.90
2018-06-27T19:45:42.263Z,3.40
2018-06-27T19:48:11.540Z,3.20
2018-06-27T19:50:40.732Z,3.00
2018-06-27T19:53:09.532Z,2.53
2018-06-27T19:55:38.497Z,3.13
2018-06-27T19:58:07.225Z,2.70
2018-06-27T20:00:36.881Z,2.77
2018-06-27T20:03:05.704Z,2.77
2018-06-27T20:05:34.896Z,2.70
2018-06-27T20:08:03.789Z,3.10
2018-06-27T20:10:32.898Z,3.47
2018-06-27T20:13:01.766Z,3.37
2018-06-27T20:15:30.478Z,3.30
2018-06-27T20:17:59.200Z,3.77
2018-06-27T20:20:27.895Z,2.73
2018-06-27T20:22:57.083Z,2.97
2018-06-27T20:25:25.960Z,2.67
2018-06-27T20:27:54.884Z,2.80
2018-06-27T20:30:23.697Z,2.60
2018-06-27T20:32:52.570Z,2.53
2018-06-27T20:35:21.393Z,2.40
2018-06-27T20:37:50.516Z,2.50
2018-06-27T20:40:19.598Z,2.87
2018-06-27T20:42:48.608Z,2.27
2018-06-27T20:45:17.440Z,2.43
2018-06-27T20:47:46.265Z,2.37
2018-06-27T20:50:15.492Z,2.80
2018-06-27T20:52:44.295Z,2.63
2018-06-27T20:55:13.113Z,2.80
2018-06-27T20:57:41.858Z,3.00
2018-06-27T21:00:10.639Z,2.90
2018-06-27T21:02:39.464Z,2.43
2018-06-27T21:05:08.284Z,2.60
2018-06-27T21:07:37.107Z,2.73
2018-06-27T21:10:05.951Z,2.60
2018-06-27T21:12:34.785Z,2.67
2018-06-27T21:15:03.624Z,2.93
2018-06-27T21:17:32.455Z,3.30
2018-06-27T21:20:01.272Z,3.03
2018-06-27T21:22:30.137Z,3.10
2018-06-27T21:24:58.948Z,3.73
2018-06-27T21:27:27.785Z,3.47
2018-06-27T21:29:56.601Z,3.33
2018-06-27T21:32:26.428Z,3.23
2018-06-27T21:34:55.288Z,3.40
2018-06-27T21:37:24.132Z,3.20
2018-06-27T21:39:52.952Z,3.00
2018-06-27T21:42:21.768Z,2.70
2018-06-27T21:44:50.805Z,2.80
2018-06-27T21:47:19.600Z,2.50
2018-06-27T21:49:48.481Z,2.63
2018-06-27T21:52:17.275Z,2.40
2018-06-27T21:54:47.104Z,2.17
2018-06-27T21:57:15.933Z,2.50
2018-06-27T21:59:44.746Z,2.50
2018-06-27T22:02:13.565Z,3.23
2018-06-27T22:04:42.409Z,3.03
2018-06-27T22:07:11.228Z,2.50
2018-06-27T22:09:39.943Z,2.80
2018-06-27T22:12:08.687Z,2.80
2018-06-27T22:14:37.512Z,2.60
2018-06-27T22:17:06.670Z,2.50
2018-06-27T22:19:35.523Z,2.60
2018-06-27T22:22:04.412Z,2.40
2018-06-27T22:24:33.424Z,2.70
2018-06-27T22:27:02.281Z,2.70
2018-06-27T22:29:31.103Z,2.70
2018-06-27T22:31:59.928Z,2.97
2018-06-27T22:34:28.772Z,2.60
2018-06-27T22:36:57.611Z,2.80
2018-06-27T22:39:26.436Z,2.40
2018-06-27T22:41:56.001Z,2.40
2018-06-27T22:44:24.792Z,2.73
2018-06-27T22:46:53.623Z,2.80
2018-06-27T22:49:22.419Z,2.90
2018-06-27T22:51:51.255Z,2.83
2018-06-27T22:54:20.067Z,2.73
2018-06-27T22:56:48.891Z,2.80
2018-06-27T22:59:17.716Z,2.53
2018-06-27T23:01:46.524Z,2.90
2018-06-27T23:04:15.326Z,2.77
2018-06-27T23:06:44.144Z,2.80
2018-06-27T23:09:12.967Z,2.60
2018-06-27T23:11:41.796Z,2.33
2018-06-27T23:14:10.596Z,2.90
2018-06-27T23:16:39.408Z,2.30
2018-06-27T23:19:08.232Z,2.90
2018-06-27T23:21:37.059Z,3.10
2018-06-27T23:24:05.904Z,2.70
2018-06-27T23:26:34.724Z,2.57
2018-06-27T23:29:03.532Z,2.77
2018-06-27T23:31:32.356Z,2.70
2018-06-27T23:34:01.192Z,2.90
2018-06-27T23:36:30.060Z,2.70
2018-06-27T23:38:58.859Z,2.63
2018-06-27T23:41:27.772Z,2.77
2018-06-27T23:43:56.588Z,2.70
2018-06-27T23:46:25.416Z,2.67
2018-06-27T23:48:54.228Z,2.83
2018-06-27T23:51:23.036Z,3.00
2018-06-27T23:53:51.847Z,2.90
2018-06-27T23:56:20.684Z,3.00
2018-06-27T23:58:49.497Z,2.80
